Time;durP1;ratioP1;P1;durP2;ratioP2;P2;SDS_P1;SDS_P2;PMS_P1;PMS_P2;Temp;Humidity;BMP_temperature;BMP_pressure;BME280_temperature;BME280_humidity;BME280_pressure;Samples;Min_cycle;Max_cycle;Signal;HPM_P1;HPM_P2
2023/11/26 00:01:57;;;;;;;2.03;1.00;;;14.60;63.20;;;;;;5094084;28;20494;-64
2023/11/26 00:04:23;;;;;;;2.97;1.50;;;14.50;63.20;;;;;;5091449;28;20039;-64
2023/11/26 00:06:50;;;;;;;2.13;0.98;;;14.60;63.20;;;;;;5100729;28;20455;-65
2023/11/26 00:09:15;;;;;;;1.77;1.23;;;14.60;63.20;;;;;;5093560;28;20032;-65
2023/11/26 00:11:41;;;;;;;2.20;1.08;;;14.60;63.20;;;;;;5092699;28;20032;-66
2023/11/26 00:14:06;;;;;;;2.60;0.93;;;14.60;63.10;;;;;;5099632;28;20027;-67
2023/11/26 00:16:37;;;;;;;3.65;1.23;;;14.60;63.10;;;;;;5085702;28;20566;-65
2023/11/26 00:19:03;;;;;;;2.05;1.45;;;14.60;63.20;;;;;;5100995;28;20032;-65
2023/11/26 00:21:29;;;;;;;1.55;0.93;;;14.60;63.20;;;;;;5096891;28;20401;-65
2023/11/26 00:23:54;;;;;;;2.22;1.00;;;14.50;63.10;;;;;;5093631;28;20032;-66
2023/11/26 00:26:20;;;;;;;3.00;1.30;;;14.60;63.20;;;;;;5093549;28;20398;-65
2023/11/26 00:28:45;;;;;;;1.77;0.90;;;14.60;63.40;;;;;;5093790;28;20035;-65
2023/11/26 00:31:11;;;;;;;2.47;1.20;;;14.60;63.20;;;;;;5096425;28;20051;-64
2023/11/26 00:33:36;;;;;;;1.58;1.23;;;14.60;63.20;;;;;;5098543;28;20436;-65
2023/11/26 00:36:03;;;;;;;2.05;1.25;;;14.60;63.30;;;;;;5094667;28;20403;-64
2023/11/26 00:38:28;;;;;;;3.45;1.15;;;14.60;63.20;;;;;;5102745;28;20478;-65
2023/11/26 00:40:54;;;;;;;1.55;0.82;;;14.60;63.40;;;;;;5103624;28;20031;-65
2023/11/26 00:43:19;;;;;;;2.20;1.13;;;14.60;63.20;;;;;;5103535;28;20107;-64
2023/11/26 00:45:45;;;;;;;1.65;0.85;;;14.60;63.30;;;;;;5104720;28;20089;-65
2023/11/26 00:48:10;;;;;;;1.55;0.80;;;14.60;63.20;;;;;;5104534;28;20036;-65
2023/11/26 00:50:36;;;;;;;1.17;0.85;;;14.60;63.30;;;;;;5105402;28;20081;-60
2023/11/26 00:53:02;;;;;;;1.13;0.75;;;14.60;63.20;;;;;;5103778;28;20024;-66
2023/11/26 00:55:28;;;;;;;1.13;0.70;;;14.60;63.20;;;;;;5105130;28;20032;-66
2023/11/26 00:57:54;;;;;;;2.05;0.82;;;14.60;63.20;;;;;;5105116;28;20115;-66
2023/11/26 01:00:19;;;;;;;1.60;0.82;;;14.60;63.20;;;;;;5102368;28;20460;-66
2023/11/26 01:02:45;;;;;;;0.82;0.70;;;14.60;63.20;;;;;;5088792;28;20048;-65
2023/11/26 01:05:10;;;;;;;1.45;0.80;;;14.60;63.30;;;;;;5095982;28;20031;-66
2023/11/26 01:07:36;;;;;;;0.90;0.70;;;14.60;63.30;;;;;;5096153;28;20107;-66
2023/11/26 01:10:02;;;;;;;1.33;0.73;;;14.60;63.30;;;;;;5105915;28;20485;-64
2023/11/26 01:12:28;;;;;;;1.90;0.70;;;14.60;63.40;;;;;;5093731;28;20054;-66
2023/11/26 01:14:54;;;;;;;0.85;0.75;;;14.60;63.20;;;;;;5095878;28;20482;-66
2023/11/26 01:17:20;;;;;;;1.52;0.70;;;14.60;63.30;;;;;;5099964;28;20444;-65
2023/11/26 01:19:46;;;;;;;1.30;1.00;;;14.60;63.40;;;;;;5092243;28;20023;-65
2023/11/26 01:22:12;;;;;;;1.60;0.80;;;14.60;63.30;;;;;;5094705;28;20111;-65
2023/11/26 01:24:38;;;;;;;1.17;0.85;;;14.60;63.40;;;;;;5092966;28;20047;-65
2023/11/26 01:27:04;;;;;;;1.48;1.00;;;14.60;63.40;;;;;;5098045;28;20441;-66
2023/11/26 01:29:30;;;;;;;1.20;0.80;;;14.60;63.30;;;;;;5099889;28;20020;-65
2023/11/26 01:31:55;;;;;;;0.98;0.70;;;14.60;63.40;;;;;;5097575;28;20043;-66
2023/11/26 01:34:21;;;;;;;0.90;0.70;;;14.60;63.40;;;;;;5098698;28;20024;-65
2023/11/26 01:36:46;;;;;;;1.40;0.60;;;14.60;63.40;;;;;;5106680;28;20032;-65
2023/11/26 01:39:12;;;;;;;1.08;0.63;;;14.60;63.40;;;;;;5094724;28;20062;-65
2023/11/26 01:41:37;;;;;;;0.70;0.60;;;14.60;63.30;;;;;;5092026;28;20027;-65
2023/11/26 01:44:03;;;;;;;1.00;0.70;;;14.60;63.40;;;;;;5094974;28;20036;-65
2023/11/26 01:46:29;;;;;;;0.82;0.68;;;14.60;63.30;;;;;;5092365;28;20038;-65
2023/11/26 01:48:55;;;;;;;1.05;0.80;;;14.60;63.30;;;;;;5087376;28;20062;-65
2023/11/26 01:51:21;;;;;;;1.10;0.80;;;14.60;63.30;;;;;;5090806;28;20559;-65
2023/11/26 01:53:49;;;;;;;1.70;0.90;;;14.60;63.40;;;;;;5090507;28;20055;-65
2023/11/26 01:56:18;;;;;;;1.23;0.47;;;14.60;63.30;;;;;;5090009;28;20168;-65
2023/11/26 01:58:44;;;;;;;1.25;0.73;;;14.60;63.40;;;;;;5099658;28;20245;-65
2023/11/26 02:01:10;;;;;;;0.90;0.47;;;14.60;63.30;;;;;;5096497;28;20044;-65
2023/11/26 02:03:37;;;;;;;0.80;0.63;;;14.60;63.30;;;;;;5099273;28;20028;-65
2023/11/26 02:06:03;;;;;;;1.10;0.63;;;14.60;63.30;;;;;;5101090;28;20020;-65
2023/11/26 02:08:30;;;;;;;1.20;0.63;;;14.60;63.30;;;;;;5099330;28;20020;-65
2023/11/26 02:10:55;;;;;;;1.25;0.68;;;14.60;63.90;;;;;;5096498;28;20028;-66
2023/11/26 02:13:21;;;;;;;0.77;0.50;;;14.60;63.40;;;;;;5103622;28;20390;-64
2023/11/26 02:15:46;;;;;;;0.75;0.60;;;14.60;63.40;;;;;;5101571;28;20032;-65
2023/11/26 02:18:12;;;;;;;0.65;0.60;;;14.60;63.30;;;;;;5099996;28;20035;-65
2023/11/26 02:20:38;;;;;;;0.57;0.52;;;14.60;63.40;;;;;;5103190;28;20540;-66
2023/11/26 02:23:03;;;;;;;0.90;0.57;;;14.60;63.20;;;;;;5100942;28;20049;-65
2023/11/26 02:25:31;;;;;;;0.88;0.75;;;14.60;63.30;;;;;;5103237;28;20024;-65
2023/11/26 02:27:59;;;;;;;1.38;0.60;;;14.60;63.20;;;;;;5102124;28;20037;-64
2023/11/26 02:30:24;;;;;;;0.73;0.50;;;14.60;63.20;;;;;;5101938;28;20028;-65
2023/11/26 02:32:51;;;;;;;1.00;0.50;;;14.60;63.20;;;;;;5100565;28;20031;-64
2023/11/26 02:35:18;;;;;;;0.73;0.60;;;14.60;63.40;;;;;;5101219;28;20068;-65
2023/11/26 02:37:45;;;;;;;1.30;0.65;;;14.60;63.30;;;;;;5091065;28;20411;-66
2023/11/26 02:40:10;;;;;;;0.68;0.60;;;14.60;63.30;;;;;;5090358;28;20024;-61
2023/11/26 02:42:36;;;;;;;1.98;0.50;;;14.60;63.30;;;;;;5098410;28;20032;-66
2023/11/26 02:45:03;;;;;;;0.82;0.65;;;14.60;63.30;;;;;;5104685;28;20027;-65
2023/11/26 02:47:29;;;;;;;0.90;0.60;;;14.60;63.30;;;;;;5097741;28;20034;-66
2023/11/26 02:49:55;;;;;;;1.13;0.70;;;14.60;63.40;;;;;;5102632;28;20023;-61
2023/11/26 02:52:20;;;;;;;1.33;0.88;;;14.60;63.30;;;;;;5094592;28;20043;-65
2023/11/26 02:54:46;;;;;;;0.95;0.60;;;14.60;63.40;;;;;;5097970;28;20118;-65
2023/11/26 02:57:11;;;;;;;0.90;0.73;;;14.60;63.30;;;;;;5091503;28;20451;-65
2023/11/26 02:59:37;;;;;;;0.73;0.40;;;14.60;63.30;;;;;;5100190;28;20061;-65
2023/11/26 03:02:03;;;;;;;0.75;0.40;;;14.60;63.30;;;;;;5098376;28;20032;-66
2023/11/26 03:04:29;;;;;;;0.50;0.45;;;14.60;63.30;;;;;;5096743;28;20524;-60
2023/11/26 03:06:54;;;;;;;0.60;0.50;;;14.60;64.00;;;;;;5100794;28;20043;-66
2023/11/26 03:14:44;;;;;;;1.30;0.50;;;14.60;63.30;;;;;;5098310;28;20084;-66
2023/11/26 03:17:13;;;;;;;0.63;0.47;;;14.60;63.30;;;;;;5081574;28;20506;-60
2023/11/26 03:19:39;;;;;;;0.55;0.50;;;14.60;63.40;;;;;;5099558;28;20040;-66
2023/11/26 03:22:09;;;;;;;0.80;0.80;;;14.60;63.40;;;;;;5082683;28;20458;-65
2023/11/26 03:24:36;;;;;;;0.40;0.40;;;14.60;63.30;;;;;;5100932;28;20036;-66
2023/11/26 03:27:02;;;;;;;0.77;0.47;;;14.60;63.40;;;;;;5102023;28;20507;-65
2023/11/26 03:29:28;;;;;;;0.60;0.40;;;14.60;63.40;;;;;;5095854;28;20118;-66
2023/11/26 03:31:54;;;;;;;0.60;0.47;;;14.60;63.40;;;;;;5098623;28;20452;-66
2023/11/26 03:34:20;;;;;;;1.90;0.70;;;14.60;63.40;;;;;;5099415;28;20036;-66
2023/11/26 03:36:45;;;;;;;1.20;0.60;;;14.60;63.40;;;;;;5099730;28;20470;-67
2023/11/26 03:39:18;;;;;;;0.50;0.50;;;14.60;63.40;;;;;;5099384;28;20039;-66
2023/11/26 03:41:43;;;;;;;0.95;0.60;;;14.60;63.30;;;;;;5099567;28;20031;-65
2023/11/26 03:44:09;;;;;;;1.38;0.60;;;14.60;63.30;;;;;;5098497;28;20036;-67
2023/11/26 03:46:37;;;;;;;1.08;0.50;;;14.60;63.40;;;;;;5099385;28;20451;-65
2023/11/26 03:49:03;;;;;;;1.60;0.40;;;14.60;63.40;;;;;;5099193;28;20111;-66
2023/11/26 03:51:28;;;;;;;0.60;0.50;;;14.60;63.40;;;;;;5101046;28;20464;-65
2023/11/26 03:53:54;;;;;;;0.85;0.50;;;14.60;63.40;;;;;;5100750;28;20031;-66
2023/11/26 03:56:20;;;;;;;0.38;0.30;;;14.60;63.40;;;;;;5099200;28;20051;-65
2023/11/26 03:58:45;;;;;;;0.50;0.50;;;14.60;63.40;;;;;;5099823;28;20043;-66
2023/11/26 04:01:11;;;;;;;0.60;0.60;;;14.60;63.40;;;;;;5099055;28;20035;-61
2023/11/26 04:03:37;;;;;;;0.75;0.40;;;14.60;63.40;;;;;;5100884;28;20080;-66
2023/11/26 04:06:03;;;;;;;0.63;0.50;;;14.60;63.30;;;;;;5100213;28;20035;-65
2023/11/26 04:08:28;;;;;;;0.40;0.30;;;14.60;63.40;;;;;;5098678;28;20058;-65
2023/11/26 04:10:54;;;;;;;1.92;0.80;;;14.60;63.40;;;;;;5097286;28;20028;-66
2023/11/26 04:13:22;;;;;;;0.85;0.32;;;14.60;63.40;;;;;;5103964;28;20031;-65
2023/11/26 04:15:54;;;;;;;0.43;0.35;;;14.60;63.40;;;;;;5104142;28;20085;-66
2023/11/26 04:18:20;;;;;;;0.70;0.45;;;14.60;63.50;;;;;;5105268;28;20043;-66
2023/11/26 04:20:47;;;;;;;0.55;0.50;;;14.60;63.40;;;;;;5107234;28;20032;-65
2023/11/26 04:23:14;;;;;;;0.65;0.50;;;14.60;63.50;;;;;;5105130;28;20038;-65
2023/11/26 04:25:39;;;;;;;0.30;0.30;;;14.60;64.10;;;;;;5106799;28;20052;-64
2023/11/26 04:28:05;;;;;;;0.73;0.50;;;14.60;63.40;;;;;;5104499;28;20035;-66
2023/11/26 04:30:31;;;;;;;0.47;0.40;;;14.60;63.40;;;;;;5100655;28;20484;-63
2023/11/26 04:32:57;;;;;;;0.60;0.50;;;14.60;63.40;;;;;;5102575;28;20035;-61
2023/11/26 04:35:23;;;;;;;0.50;0.40;;;14.60;63.40;;;;;;5107556;28;20059;-65
2023/11/26 04:37:49;;;;;;;1.00;0.40;;;14.60;63.40;;;;;;5102364;28;20062;-66
2023/11/26 04:40:15;;;;;;;0.45;0.45;;;14.60;63.40;;;;;;5082269;28;20497;-65
2023/11/26 04:42:41;;;;;;;0.70;0.32;;;14.60;63.40;;;;;;5101551;28;20039;-66
2023/11/26 04:45:08;;;;;;;0.40;0.40;;;14.60;63.40;;;;;;5101425;28;20414;-66
2023/11/26 04:47:35;;;;;;;0.52;0.32;;;14.60;63.40;;;;;;5102229;28;20062;-66
2023/11/26 04:50:01;;;;;;;0.30;0.30;;;14.60;63.40;;;;;;5105044;28;20110;-65
2023/11/26 04:52:27;;;;;;;0.32;0.32;;;14.60;63.40;;;;;;5104245;28;20110;-66
2023/11/26 04:54:52;;;;;;;0.80;0.50;;;14.60;63.40;;;;;;5105973;28;20032;-64
2023/11/26 04:57:18;;;;;;;0.60;0.47;;;14.60;63.50;;;;;;5100277;28;20043;-66
2023/11/26 04:59:43;;;;;;;1.17;0.40;;;14.60;63.40;;;;;;5099585;28;20020;-66
2023/11/26 05:02:10;;;;;;;0.40;0.28;;;14.60;63.40;;;;;;5099435;28;20054;-65
2023/11/26 05:04:36;;;;;;;1.05;0.43;;;14.60;63.40;;;;;;5102663;28;20046;-65
2023/11/26 05:07:02;;;;;;;2.35;0.50;;;14.60;63.40;;;;;;5102342;28;20024;-66
2023/11/26 05:09:31;;;;;;;0.65;0.50;;;14.60;63.40;;;;;;5103476;28;20027;-65
2023/11/26 05:11:56;;;;;;;0.45;0.30;;;14.60;63.40;;;;;;5098311;28;20093;-65
2023/11/26 05:14:22;;;;;;;0.40;0.40;;;14.60;63.40;;;;;;5100466;28;20443;-65
2023/11/26 05:16:48;;;;;;;0.65;0.40;;;14.60;63.40;;;;;;5102640;28;20046;-66
2023/11/26 05:19:13;;;;;;;0.63;0.50;;;14.60;63.40;;;;;;5082948;28;20486;-66
2023/11/26 05:21:39;;;;;;;0.50;0.30;;;14.60;63.40;;;;;;5077820;28;20473;-66
2023/11/26 05:24:06;;;;;;;0.43;0.38;;;14.60;63.40;;;;;;5098630;28;20035;-65
2023/11/26 05:26:32;;;;;;;0.40;0.38;;;14.60;63.50;;;;;;5100829;28;20033;-66
2023/11/26 05:28:57;;;;;;;0.57;0.38;;;14.60;63.40;;;;;;5101102;28;20528;-66
2023/11/26 05:31:23;;;;;;;0.35;0.35;;;14.60;63.40;;;;;;5103526;28;20085;-62
2023/11/26 05:33:51;;;;;;;0.35;0.25;;;14.60;63.40;;;;;;5102882;28;20506;-66
2023/11/26 05:36:17;;;;;;;0.50;0.40;;;14.60;63.40;;;;;;5096801;28;21019;-65
2023/11/26 05:38:43;;;;;;;0.45;0.45;;;14.60;63.40;;;;;;5099104;28;20050;-65
2023/11/26 05:41:09;;;;;;;0.70;0.30;;;14.60;63.50;;;;;;5102605;28;20080;-66
2023/11/26 05:43:34;;;;;;;0.50;0.40;;;14.60;63.40;;;;;;5101859;28;20530;-66
2023/11/26 05:46:00;;;;;;;0.40;0.40;;;14.60;63.40;;;;;;5102557;28;20586;-65
2023/11/26 05:48:25;;;;;;;0.60;0.38;;;14.60;63.50;;;;;;5102668;28;20059;-65
2023/11/26 05:50:51;;;;;;;0.45;0.40;;;14.60;63.40;;;;;;5103526;28;20062;-65
2023/11/26 05:53:18;;;;;;;0.98;0.30;;;14.60;63.50;;;;;;5094288;28;20629;-66
2023/11/26 05:55:43;;;;;;;0.45;0.45;;;14.60;63.40;;;;;;5098954;28;20040;-65
2023/11/26 05:58:09;;;;;;;0.50;0.40;;;14.60;63.40;;;;;;5099664;28;20032;-65
2023/11/26 06:00:34;;;;;;;0.52;0.35;;;14.60;63.40;;;;;;5103338;28;20115;-62
2023/11/26 06:03:00;;;;;;;0.68;0.40;;;14.60;63.40;;;;;;5098085;28;20426;-64
2023/11/26 06:05:25;;;;;;;0.50;0.30;;;14.60;63.40;;;;;;5099458;28;20107;-66
2023/11/26 06:07:51;;;;;;;0.43;0.38;;;14.60;63.50;;;;;;5102374;28;20036;-66
2023/11/26 06:10:16;;;;;;;0.50;0.38;;;14.60;63.40;;;;;;5096693;28;20040;-61
2023/11/26 06:12:42;;;;;;;0.63;0.45;;;14.60;63.40;;;;;;5102738;28;20046;-60
2023/11/26 06:15:08;;;;;;;0.38;0.30;;;14.60;63.50;;;;;;5100979;28;20305;-66
2023/11/26 06:17:34;;;;;;;0.40;0.32;;;14.60;63.40;;;;;;5102800;28;20023;-65
2023/11/26 06:19:59;;;;;;;0.50;0.30;;;14.60;63.40;;;;;;5084801;28;20020;-67
2023/11/26 06:22:25;;;;;;;0.55;0.50;;;14.60;63.40;;;;;;5103671;28;20028;-64
2023/11/26 06:24:50;;;;;;;0.30;0.30;;;14.60;63.40;;;;;;5100340;28;20026;-62
2023/11/26 06:27:16;;;;;;;0.25;0.25;;;14.60;63.40;;;;;;5100422;28;20125;-65
2023/11/26 06:29:41;;;;;;;0.65;0.40;;;14.60;63.40;;;;;;5099854;28;20757;-66
2023/11/26 06:32:07;;;;;;;0.22;0.22;;;14.60;63.40;;;;;;5095516;28;20035;-66
2023/11/26 06:34:32;;;;;;;0.25;0.25;;;14.60;63.40;;;;;;5100458;28;20115;-65
2023/11/26 06:37:01;;;;;;;0.90;0.40;;;14.60;63.50;;;;;;5102541;28;20042;-65
2023/11/26 06:39:27;;;;;;;0.55;0.30;;;14.60;63.40;;;;;;5057087;28;20032;-65
2023/11/26 06:41:54;;;;;;;0.50;0.30;;;14.60;63.40;;;;;;5100057;28;20394;-65
2023/11/26 06:44:20;;;;;;;0.45;0.30;;;14.60;63.40;;;;;;5099130;28;20043;-66
2023/11/26 06:46:46;;;;;;;0.63;0.40;;;14.60;64.00;;;;;;5100884;28;20051;-66
2023/11/26 06:49:12;;;;;;;0.40;0.32;;;14.60;63.40;;;;;;5099567;28;20123;-65
2023/11/26 06:51:39;;;;;;;0.40;0.40;;;14.60;63.40;;;;;;5100558;28;20111;-66
2023/11/26 06:54:05;;;;;;;0.43;0.40;;;14.60;63.40;;;;;;5093129;28;20097;-65
2023/11/26 06:56:30;;;;;;;0.55;0.43;;;14.60;63.40;;;;;;5099707;28;20040;-67
2023/11/26 06:58:56;;;;;;;1.08;0.77;;;14.60;63.20;;;;;;5089843;28;20276;-66
2023/11/26 07:01:21;;;;;;;2.05;0.77;;;14.60;63.10;;;;;;5094739;28;20096;-66
2023/11/26 07:03:48;;;;;;;1.60;1.17;;;14.50;63.20;;;;;;5098616;28;20114;-66
2023/11/26 07:06:14;;;;;;;1.67;1.27;;;14.50;62.40;;;;;;5099200;28;20023;-66
2023/11/26 07:08:41;;;;;;;2.60;1.10;;;14.50;62.40;;;;;;5099358;28;20730;-65
2023/11/26 07:11:15;;;;;;;1.67;1.17;;;14.50;62.40;;;;;;5097829;28;20031;-66
2023/11/26 07:13:41;;;;;;;2.65;1.60;;;14.50;62.20;;;;;;5099317;28;20067;-65
2023/11/26 07:16:07;;;;;;;1.40;1.30;;;14.50;62.30;;;;;;5099215;28;20027;-63
2023/11/26 07:18:32;;;;;;;2.33;1.38;;;14.50;62.40;;;;;;5100960;28;20427;-65
2023/11/26 07:20:59;;;;;;;1.17;1.08;;;14.50;62.40;;;;;;5101125;28;20057;-65
2023/11/26 07:23:24;;;;;;;1.20;1.02;;;14.50;62.10;;;;;;5095253;28;20032;-64
2023/11/26 07:25:50;;;;;;;0.82;0.77;;;14.50;62.00;;;;;;5079937;28;20447;-65
2023/11/26 07:28:16;;;;;;;1.05;1.00;;;14.40;62.10;;;;;;5097409;28;20232;-65
2023/11/26 07:30:45;;;;;;;0.93;0.80;;;14.40;62.00;;;;;;5094541;28;20062;-65
2023/11/26 07:33:10;;;;;;;1.45;1.00;;;14.40;62.10;;;;;;5092645;28;20034;-65
2023/11/26 07:35:37;;;;;;;1.30;0.75;;;14.40;61.90;;;;;;5097460;28;20111;-65
2023/11/26 07:38:04;;;;;;;0.80;0.80;;;14.40;62.30;;;;;;5098816;28;20077;-60
2023/11/26 07:40:30;;;;;;;1.10;0.95;;;14.40;61.80;;;;;;5096383;28;20554;-64
2023/11/26 07:42:55;;;;;;;1.55;1.00;;;14.40;61.80;;;;;;5095587;28;20633;-65
2023/11/26 07:45:21;;;;;;;1.08;0.88;;;14.40;61.90;;;;;;5097287;28;20031;-65
2023/11/26 07:47:47;;;;;;;1.10;0.77;;;14.40;61.90;;;;;;5103225;28;20024;-65
2023/11/26 07:50:12;;;;;;;1.52;0.98;;;14.40;62.00;;;;;;5103498;28;20059;-65
2023/11/26 07:52:39;;;;;;;0.70;0.70;;;14.40;62.00;;;;;;5103571;28;20034;-65
2023/11/26 07:55:05;;;;;;;1.13;1.00;;;14.40;62.00;;;;;;5102603;28;20108;-66
2023/11/26 07:57:31;;;;;;;1.30;0.82;;;14.40;61.80;;;;;;5099287;28;20044;-64
2023/11/26 07:59:58;;;;;;;1.13;0.90;;;14.40;62.00;;;;;;5102679;28;20028;-65
2023/11/26 08:02:23;;;;;;;1.30;0.98;;;14.40;61.70;;;;;;5097284;28;20114;-65
2023/11/26 08:04:53;;;;;;;1.08;0.80;;;14.40;62.30;;;;;;5099870;28;20127;-65
2023/11/26 08:07:26;;;;;;;0.90;0.80;;;14.40;61.70;;;;;;5101848;28;20025;-65
2023/11/26 08:09:52;;;;;;;1.55;1.05;;;14.40;61.60;;;;;;5102816;28;20027;-65
2023/11/26 08:12:20;;;;;;;0.82;0.80;;;14.40;62.10;;;;;;5101392;28;20024;-62
2023/11/26 08:14:47;;;;;;;1.10;1.00;;;14.40;61.70;;;;;;5100750;28;20036;-66
2023/11/26 08:17:12;;;;;;;1.70;0.90;;;14.40;61.50;;;;;;5102198;28;20040;-65
2023/11/26 08:19:40;;;;;;;1.30;1.05;;;14.40;61.50;;;;;;5103858;28;20054;-65
2023/11/26 08:22:06;;;;;;;1.42;0.93;;;14.40;61.50;;;;;;5103111;28;20406;-66
2023/11/26 08:24:32;;;;;;;4.05;2.05;;;14.40;62.00;;;;;;5097880;28;20036;-65
2023/11/26 08:27:01;;;;;;;4.68;2.10;;;14.40;61.80;;;;;;5102072;28;20378;-65
2023/11/26 08:29:27;;;;;;;1.88;1.15;;;14.40;61.70;;;;;;5098141;28;20032;-65
2023/11/26 08:31:53;;;;;;;2.05;1.10;;;14.40;61.80;;;;;;5101771;28;20040;-65
2023/11/26 08:34:22;;;;;;;1.67;1.10;;;14.40;62.00;;;;;;5101181;28;20028;-65
2023/11/26 08:36:49;;;;;;;3.92;1.50;;;14.40;61.80;;;;;;5103312;28;20035;-65
2023/11/26 08:39:19;;;;;;;1.23;1.00;;;14.40;61.70;;;;;;5080740;28;20050;-61
2023/11/26 08:41:50;;;;;;;2.03;0.82;;;14.40;61.70;;;;;;5102871;28;20035;-66
2023/11/26 08:44:15;;;;;;;2.42;1.20;;;14.40;61.70;;;;;;5100885;28;20032;-60
2023/11/26 08:46:41;;;;;;;2.40;1.30;;;14.40;61.50;;;;;;5105758;28;20088;-66
2023/11/26 08:49:08;;;;;;;1.73;0.82;;;14.40;61.50;;;;;;5101897;28;20734;-64
2023/11/26 08:51:36;;;;;;;4.97;1.23;;;14.40;61.70;;;;;;5101094;28;20032;-65
2023/11/26 08:54:02;;;;;;;1.00;0.90;;;14.40;61.50;;;;;;5097694;28;20028;-65
2023/11/26 08:56:28;;;;;;;2.03;1.33;;;14.40;61.90;;;;;;5095156;28;20042;-66
2023/11/26 08:58:54;;;;;;;1.80;1.30;;;14.40;61.60;;;;;;5100846;28;20035;-65
2023/11/26 09:01:20;;;;;;;3.13;1.40;;;14.40;61.50;;;;;;5101504;28;20110;-65
2023/11/26 09:03:46;;;;;;;1.92;1.20;;;14.40;61.50;;;;;;5081392;28;20059;-65
2023/11/26 09:06:11;;;;;;;1.70;1.13;;;14.40;61.70;;;;;;5101799;28;20028;-65
2023/11/26 09:08:37;;;;;;;2.45;1.00;;;14.40;61.00;;;;;;5099447;28;20111;-66
2023/11/26 09:11:03;;;;;;;4.80;1.30;;;14.40;61.10;;;;;;5082165;28;20114;-65
2023/11/26 09:13:31;;;;;;;3.92;1.63;;;14.40;61.50;;;;;;5099194;28;20036;-65
2023/11/26 09:15:58;;;;;;;1.50;0.82;;;14.40;61.30;;;;;;5095569;28;20547;-70
2023/11/26 09:18:23;;;;;;;2.85;1.20;;;14.50;62.80;;;;;;5099814;28;20039;-70
2023/11/26 09:20:49;;;;;;;1.75;0.90;;;14.70;61.90;;;;;;5098929;28;20036;-69
2023/11/26 09:23:15;;;;;;;3.13;1.50;;;14.70;61.90;;;;;;5100729;28;20047;-71
2023/11/26 09:25:40;;;;;;;4.70;1.15;;;14.60;62.10;;;;;;5101828;28;20039;-71
2023/11/26 09:28:07;;;;;;;2.60;1.27;;;14.60;62.30;;;;;;5102814;28;20052;-69
2023/11/26 09:30:32;;;;;;;2.83;1.20;;;14.50;62.20;;;;;;5106668;28;20032;-67
2023/11/26 09:32:58;;;;;;;2.67;1.10;;;14.50;62.10;;;;;;5100379;28;20039;-71
2023/11/26 09:35:24;;;;;;;5.13;1.02;;;14.50;62.10;;;;;;5096453;28;20043;-70
2023/11/26 09:37:49;;;;;;;3.85;1.38;;;14.50;62.40;;;;;;5101584;28;20383;-67
2023/11/26 09:40:15;;;;;;;2.00;1.25;;;14.50;62.40;;;;;;5096024;28;20109;-71
2023/11/26 09:42:48;;;;;;;2.67;1.30;;;14.60;62.30;;;;;;5099652;28;20036;-72
2023/11/26 09:45:13;;;;;;;2.08;1.00;;;14.60;62.30;;;;;;5101800;28;20027;-70
2023/11/26 09:47:39;;;;;;;2.90;1.27;;;14.60;62.20;;;;;;5098302;28;20027;-69
2023/11/26 09:50:05;;;;;;;4.20;1.15;;;14.60;62.30;;;;;;5096744;28;20427;-69
2023/11/26 09:52:32;;;;;;;2.47;0.98;;;14.60;62.30;;;;;;5099666;28;20028;-70
2023/11/26 09:54:59;;;;;;;1.60;0.90;;;14.60;62.30;;;;;;5099007;28;20348;-69
2023/11/26 09:57:26;;;;;;;1.33;0.70;;;14.60;62.40;;;;;;5095671;28;20140;-71
2023/11/26 09:59:53;;;;;;;2.25;0.90;;;14.60;62.30;;;;;;5085540;28;20475;-71
2023/11/26 10:02:19;;;;;;;2.25;0.80;;;14.60;62.40;;;;;;5099606;28;20028;-69
2023/11/26 10:04:47;;;;;;;4.82;0.93;;;14.60;62.50;;;;;;5100223;28;20172;-70
2023/11/26 10:07:12;;;;;;;1.52;0.93;;;14.60;62.50;;;;;;5098671;28;20081;-70
2023/11/26 10:09:38;;;;;;;0.98;0.73;;;14.60;62.30;;;;;;5099649;28;20043;-71
2023/11/26 10:12:04;;;;;;;2.08;0.85;;;14.60;62.40;;;;;;5101733;28;20028;-71
2023/11/26 10:14:29;;;;;;;2.47;0.93;;;14.60;62.30;;;;;;5100672;28;20031;-70
2023/11/26 10:16:55;;;;;;;1.35;0.80;;;14.60;62.30;;;;;;5100213;28;20038;-70
2023/11/26 10:19:21;;;;;;;1.00;0.90;;;14.60;62.40;;;;;;5097832;28;20118;-70
2023/11/26 10:21:53;;;;;;;2.67;1.15;;;14.60;62.50;;;;;;5102632;28;20032;-71
2023/11/26 10:24:20;;;;;;;1.35;0.77;;;14.60;62.40;;;;;;5097356;28;20501;-71
2023/11/26 10:26:45;;;;;;;1.20;0.82;;;14.60;62.50;;;;;;5101534;28;20035;-71
2023/11/26 10:29:12;;;;;;;1.77;0.80;;;14.60;62.50;;;;;;5102685;28;20668;-71
2023/11/26 10:31:59;;;;;;;1.50;0.95;;;14.70;62.60;;;;;;5101601;28;20754;-70
2023/11/26 10:34:25;;;;;;;1.67;0.60;;;14.70;62.70;;;;;;5085661;28;20479;-71
2023/11/26 10:36:51;;;;;;;1.15;0.90;;;14.70;62.90;;;;;;5106490;28;20039;-71
2023/11/26 10:39:17;;;;;;;1.55;0.95;;;14.70;63.00;;;;;;5100270;28;20028;-71
2023/11/26 10:41:45;;;;;;;1.38;0.88;;;14.70;63.00;;;;;;5099870;28;20035;-71
2023/11/26 10:44:11;;;;;;;2.38;0.88;;;14.70;63.00;;;;;;5100290;28;20114;-72
2023/11/26 10:46:37;;;;;;;1.92;1.08;;;14.70;62.80;;;;;;5095798;28;20054;-71
2023/11/26 10:49:14;;;;;;;0.98;0.88;;;14.70;62.90;;;;;;5099478;28;20035;-72
2023/11/26 10:51:45;;;;;;;0.70;0.70;;;14.70;62.80;;;;;;5098107;28;20040;-70
2023/11/26 10:54:21;;;;;;;1.70;0.90;;;14.70;62.90;;;;;;5078410;28;20078;-71
2023/11/26 10:56:49;;;;;;;1.40;1.00;;;14.60;62.90;;;;;;5098551;28;20621;-72
2023/11/26 10:59:19;;;;;;;1.13;0.82;;;14.60;63.00;;;;;;5094491;28;20122;-71
2023/11/26 11:01:46;;;;;;;1.92;0.90;;;14.60;63.00;;;;;;5099510;28;20498;-71
2023/11/26 11:04:14;;;;;;;2.53;0.90;;;14.70;63.60;;;;;;5092822;28;20810;-71
2023/11/26 11:06:40;;;;;;;1.85;0.88;;;14.60;63.00;;;;;;5100303;28;20589;-70
2023/11/26 11:09:12;;;;;;;1.35;0.98;;;14.60;63.00;;;;;;5098933;28;20028;-70
2023/11/26 11:12:04;;;;;;;1.20;0.60;;;14.60;62.90;;;;;;5100621;28;20051;-69
2023/11/26 11:14:31;;;;;;;1.50;1.27;;;14.60;63.00;;;;;;5096209;28;20024;-69
2023/11/26 11:16:56;;;;;;;2.00;0.63;;;14.60;63.00;;;;;;5094232;28;20036;-70
2023/11/26 11:19:47;;;;;;;1.05;0.85;;;14.60;62.90;;;;;;5097902;28;20028;-70
2023/11/26 11:22:13;;;;;;;1.67;0.90;;;14.60;62.90;;;;;;5100813;28;20465;-70
2023/11/26 11:24:38;;;;;;;1.58;0.93;;;14.60;62.90;;;;;;5101264;28;20130;-69
2023/11/26 11:27:04;;;;;;;2.05;0.75;;;14.70;63.00;;;;;;5098150;28;20051;-70
2023/11/26 11:29:33;;;;;;;2.00;1.08;;;14.60;62.90;;;;;;5101920;27;20034;-70
2023/11/26 11:32:00;;;;;;;0.85;0.73;;;14.60;62.90;;;;;;5094934;28;20039;-69
2023/11/26 11:34:26;;;;;;;1.67;0.80;;;14.60;63.00;;;;;;5078546;28;20032;-71
2023/11/26 11:36:57;;;;;;;4.45;0.82;;;14.60;63.00;;;;;;5099293;28;20035;-70
2023/11/26 11:39:25;;;;;;;3.58;1.48;;;14.60;63.10;;;;;;5099431;28;20057;-70
2023/11/26 11:41:59;;;;;;;8.05;2.80;;;14.60;63.20;;;;;;5101537;28;20039;-71
2023/11/26 11:44:41;;;;;;;7.18;3.47;;;14.60;63.00;;;;;;5099339;28;20028;-71
2023/11/26 11:47:12;;;;;;;9.35;4.22;;;14.60;63.20;;;;;;5099919;28;20534;-71
2023/11/26 11:49:48;;;;;;;15.70;5.25;;;14.60;63.20;;;;;;5102030;28;20035;-70
2023/11/26 11:52:15;;;;;;;11.98;5.18;;;14.60;63.20;;;;;;5099222;28;20035;-70
2023/11/26 11:54:49;;;;;;;15.13;7.05;;;14.60;63.30;;;;;;5099051;28;20066;-71
2023/11/26 11:57:16;;;;;;;17.77;8.27;;;14.60;63.20;;;;;;5093775;28;20027;-71
2023/11/26 11:59:43;;;;;;;20.15;7.80;;;14.70;63.20;;;;;;5098009;28;20043;-70
2023/11/26 12:02:12;;;;;;;24.67;8.70;;;14.60;63.10;;;;;;5097766;28;20031;-70
2023/11/26 12:04:40;;;;;;;22.23;9.02;;;14.70;63.20;;;;;;5099869;28;20394;-68
2023/11/26 12:07:06;;;;;;;26.67;11.13;;;14.70;63.20;;;;;;5094154;28;20100;-68
2023/11/26 12:09:36;;;;;;;25.15;9.80;;;14.70;63.20;;;;;;5096631;28;20040;-69
2023/11/26 12:12:02;;;;;;;26.02;9.93;;;14.70;63.20;;;;;;5076695;28;20240;-68
2023/11/26 12:14:27;;;;;;;26.58;11.30;;;14.70;63.20;;;;;;5097587;28;20447;-68
2023/11/26 12:16:53;;;;;;;27.92;11.57;;;14.70;63.20;;;;;;5097007;28;20024;-69
2023/11/26 12:19:19;;;;;;;29.60;11.30;;;14.70;63.20;;;;;;5099999;28;20118;-70
2023/11/26 12:21:45;;;;;;;30.17;11.77;;;14.70;63.20;;;;;;5095939;28;20154;-69
2023/11/26 12:24:22;;;;;;;32.63;12.60;;;14.70;63.20;;;;;;5095015;28;20036;-71
2023/11/26 12:26:48;;;;;;;28.83;12.63;;;14.70;63.20;;;;;;5082137;28;20056;-70
2023/11/26 12:29:25;;;;;;;29.50;12.57;;;14.70;63.80;;;;;;5090557;28;20075;-70
2023/11/26 12:31:52;;;;;;;28.55;12.27;;;14.70;63.20;;;;;;5088443;28;20067;-70
2023/11/26 12:34:19;;;;;;;32.85;12.43;;;14.70;63.30;;;;;;5099155;28;20027;-71
2023/11/26 12:36:46;;;;;;;25.98;11.27;;;14.70;63.30;;;;;;5104084;28;20057;-71
2023/11/26 12:39:11;;;;;;;34.80;14.18;;;14.70;63.30;;;;;;5099171;28;20055;-72
2023/11/26 12:41:37;;;;;;;24.77;12.07;;;14.70;63.40;;;;;;5096481;28;20782;-72
2023/11/26 12:44:03;;;;;;;29.20;12.55;;;14.70;63.40;;;;;;5095888;28;20043;-71
2023/11/26 12:46:29;;;;;;;32.05;12.68;;;14.60;63.50;;;;;;5095701;28;20112;-69
2023/11/26 12:48:55;;;;;;;32.72;13.35;;;14.70;63.50;;;;;;5094809;28;20440;-71